sensor_id;sensor_type;location;lat;lon;timestamp;temperature;humidity
5556;DHT22;2801;50.972;7.856;2023-05-06T00:01:22;10.00;99.90
5556;DHT22;2801;50.972;7.856;2023-05-06T00:03:50;10.00;99.90
5556;DHT22;2801;50.972;7.856;2023-05-06T00:06:17;9.90;99.90
5556;DHT22;2801;50.972;7.856;2023-05-06T00:08:44;9.80;99.90
5556;DHT22;2801;50.972;7.856;2023-05-06T00:11:12;9.80;99.90
5556;DHT22;2801;50.972;7.856;2023-05-06T00:13:39;9.80;99.90
5556;DHT22;2801;50.972;7.856;2023-05-06T00:16:07;9.80;99.90
5556;DHT22;2801;50.972;7.856;2023-05-06T00:18:34;9.80;99.90
5556;DHT22;2801;50.972;7.856;2023-05-06T00:21:01;9.80;99.90
5556;DHT22;2801;50.972;7.856;2023-05-06T00:23:28;9.80;99.90
5556;DHT22;2801;50.972;7.856;2023-05-06T00:25:55;9.80;99.90
5556;DHT22;2801;50.972;7.856;2023-05-06T00:28:22;9.80;99.90
5556;DHT22;2801;50.972;7.856;2023-05-06T00:30:48;9.80;99.90
5556;DHT22;2801;50.972;7.856;2023-05-06T00:33:15;9.80;99.90
5556;DHT22;2801;50.972;7.856;2023-05-06T00:35:42;9.80;99.90
5556;DHT22;2801;50.972;7.856;2023-05-06T00:38:13;9.80;99.90
5556;DHT22;2801;50.972;7.856;2023-05-06T00:40:43;9.80;99.90
5556;DHT22;2801;50.972;7.856;2023-05-06T00:43:10;9.70;99.90
5556;DHT22;2801;50.972;7.856;2023-05-06T00:45:37;9.60;99.90
5556;DHT22;2801;50.972;7.856;2023-05-06T00:48:05;9.50;99.90
5556;DHT22;2801;50.972;7.856;2023-05-06T00:50:33;9.40;99.90
5556;DHT22;2801;50.972;7.856;2023-05-06T00:53:03;9.40;99.90
5556;DHT22;2801;50.972;7.856;2023-05-06T00:55:31;9.30;99.90
5556;DHT22;2801;50.972;7.856;2023-05-06T00:57:58;9.30;99.90
5556;DHT22;2801;50.972;7.856;2023-05-06T01:00:26;9.30;99.90
5556;DHT22;2801;50.972;7.856;2023-05-06T01:02:53;9.30;99.90
5556;DHT22;2801;50.972;7.856;2023-05-06T01:05:22;9.30;99.90
5556;DHT22;2801;50.972;7.856;2023-05-06T01:07:57;9.30;99.90
5556;DHT22;2801;50.972;7.856;2023-05-06T01:10:41;9.30;99.90
5556;DHT22;2801;50.972;7.856;2023-05-06T01:13:23;9.40;99.90
5556;DHT22;2801;50.972;7.856;2023-05-06T01:15:59;9.30;99.90
5556;DHT22;2801;50.972;7.856;2023-05-06T01:18:30;9.30;99.90
5556;DHT22;2801;50.972;7.856;2023-05-06T01:20:58;9.30;99.90
5556;DHT22;2801;50.972;7.856;2023-05-06T01:23:25;9.40;99.90
5556;DHT22;2801;50.972;7.856;2023-05-06T01:25:52;9.40;99.90
5556;DHT22;2801;50.972;7.856;2023-05-06T01:28:19;9.40;99.90
5556;DHT22;2801;50.972;7.856;2023-05-06T01:31:00;9.30;99.90
5556;DHT22;2801;50.972;7.856;2023-05-06T01:33:53;9.30;99.90
5556;DHT22;2801;50.972;7.856;2023-05-06T01:39:24;9.20;99.90
5556;DHT22;2801;50.972;7.856;2023-05-06T01:41:55;9.10;99.90
5556;DHT22;2801;50.972;7.856;2023-05-06T01:44:26;9.00;99.90
5556;DHT22;2801;50.972;7.856;2023-05-06T01:46:59;9.00;99.90
5556;DHT22;2801;50.972;7.856;2023-05-06T01:49:28;9.00;99.90
5556;DHT22;2801;50.972;7.856;2023-05-06T01:51:56;8.90;99.90
5556;DHT22;2801;50.972;7.856;2023-05-06T01:54:23;8.90;99.90
5556;DHT22;2801;50.972;7.856;2023-05-06T01:56:50;8.90;99.90
5556;DHT22;2801;50.972;7.856;2023-05-06T01:59:17;9.00;99.90
5556;DHT22;2801;50.972;7.856;2023-05-06T02:01:44;9.00;99.90
5556;DHT22;2801;50.972;7.856;2023-05-06T02:04:11;9.00;99.90
5556;DHT22;2801;50.972;7.856;2023-05-06T02:06:38;8.90;99.90
5556;DHT22;2801;50.972;7.856;2023-05-06T02:09:05;9.00;99.90
5556;DHT22;2801;50.972;7.856;2023-05-06T02:11:32;9.10;99.90
5556;DHT22;2801;50.972;7.856;2023-05-06T02:13:58;9.00;99.90
5556;DHT22;2801;50.972;7.856;2023-05-06T02:16:27;9.00;99.90
5556;DHT22;2801;50.972;7.856;2023-05-06T02:18:54;8.90;99.90
5556;DHT22;2801;50.972;7.856;2023-05-06T02:21:22;8.90;99.90
5556;DHT22;2801;50.972;7.856;2023-05-06T02:23:49;8.80;99.90
5556;DHT22;2801;50.972;7.856;2023-05-06T02:26:16;8.70;99.90
5556;DHT22;2801;50.972;7.856;2023-05-06T02:28:43;8.80;99.90
5556;DHT22;2801;50.972;7.856;2023-05-06T02:31:16;8.60;99.90
5556;DHT22;2801;50.972;7.856;2023-05-06T02:33:44;8.50;99.90
5556;DHT22;2801;50.972;7.856;2023-05-06T02:36:11;8.50;99.90
5556;DHT22;2801;50.972;7.856;2023-05-06T02:38:38;8.40;99.90
5556;DHT22;2801;50.972;7.856;2023-05-06T02:41:05;8.40;99.90
5556;DHT22;2801;50.972;7.856;2023-05-06T02:43:32;8.30;99.90
5556;DHT22;2801;50.972;7.856;2023-05-06T02:45:58;8.30;99.90
5556;DHT22;2801;50.972;7.856;2023-05-06T02:48:25;8.20;99.90
5556;DHT22;2801;50.972;7.856;2023-05-06T02:50:52;8.20;99.90
5556;DHT22;2801;50.972;7.856;2023-05-06T02:53:19;8.10;99.90
5556;DHT22;2801;50.972;7.856;2023-05-06T02:55:46;8.00;99.90
5556;DHT22;2801;50.972;7.856;2023-05-06T02:58:13;8.00;99.90
5556;DHT22;2801;50.972;7.856;2023-05-06T03:00:40;7.90;99.90
5556;DHT22;2801;50.972;7.856;2023-05-06T03:03:07;7.90;99.90
5556;DHT22;2801;50.972;7.856;2023-05-06T03:05:35;7.80;99.90
5556;DHT22;2801;50.972;7.856;2023-05-06T03:08:02;7.80;99.90
5556;DHT22;2801;50.972;7.856;2023-05-06T03:10:29;7.80;99.90
5556;DHT22;2801;50.972;7.856;2023-05-06T03:12:56;7.80;99.90
5556;DHT22;2801;50.972;7.856;2023-05-06T03:15:23;7.70;99.90
5556;DHT22;2801;50.972;7.856;2023-05-06T03:17:50;7.80;99.90
5556;DHT22;2801;50.972;7.856;2023-05-06T03:20:17;7.80;99.90
5556;DHT22;2801;50.972;7.856;2023-05-06T03:22:44;7.80;99.90
5556;DHT22;2801;50.972;7.856;2023-05-06T03:25:11;7.90;99.90
5556;DHT22;2801;50.972;7.856;2023-05-06T03:27:38;7.90;99.90
5556;DHT22;2801;50.972;7.856;2023-05-06T03:30:05;8.00;99.90
5556;DHT22;2801;50.972;7.856;2023-05-06T03:32:33;7.90;99.90
5556;DHT22;2801;50.972;7.856;2023-05-06T03:35:01;7.90;99.90
5556;DHT22;2801;50.972;7.856;2023-05-06T03:37:28;7.90;99.90
5556;DHT22;2801;50.972;7.856;2023-05-06T03:39:56;7.90;99.90
5556;DHT22;2801;50.972;7.856;2023-05-06T03:42:23;7.90;99.90
5556;DHT22;2801;50.972;7.856;2023-05-06T03:44:50;7.90;99.90
5556;DHT22;2801;50.972;7.856;2023-05-06T03:47:17;7.90;99.90
5556;DHT22;2801;50.972;7.856;2023-05-06T03:49:44;7.80;99.90
5556;DHT22;2801;50.972;7.856;2023-05-06T03:52:10;7.80;99.90
5556;DHT22;2801;50.972;7.856;2023-05-06T03:54:37;7.70;99.90
5556;DHT22;2801;50.972;7.856;2023-05-06T03:57:04;7.70;99.90
5556;DHT22;2801;50.972;7.856;2023-05-06T03:59:31;7.70;99.90
5556;DHT22;2801;50.972;7.856;2023-05-06T04:01:58;7.60;99.90
5556;DHT22;2801;50.972;7.856;2023-05-06T04:04:25;7.70;99.90
5556;DHT22;2801;50.972;7.856;2023-05-06T04:06:53;7.60;99.90
5556;DHT22;2801;50.972;7.856;2023-05-06T04:09:19;7.70;99.90
5556;DHT22;2801;50.972;7.856;2023-05-06T04:11:46;7.70;99.90
5556;DHT22;2801;50.972;7.856;2023-05-06T04:14:13;7.80;99.90
5556;DHT22;2801;50.972;7.856;2023-05-06T04:16:40;7.80;99.90
5556;DHT22;2801;50.972;7.856;2023-05-06T04:19:07;7.80;99.90
5556;DHT22;2801;50.972;7.856;2023-05-06T04:21:34;7.90;99.90
5556;DHT22;2801;50.972;7.856;2023-05-06T04:24:01;7.90;99.90
5556;DHT22;2801;50.972;7.856;2023-05-06T04:26:28;7.80;99.90
5556;DHT22;2801;50.972;7.856;2023-05-06T04:28:55;7.80;99.90
5556;DHT22;2801;50.972;7.856;2023-05-06T04:31:23;7.80;99.90
5556;DHT22;2801;50.972;7.856;2023-05-06T04:33:50;7.90;99.90
5556;DHT22;2801;50.972;7.856;2023-05-06T04:36:19;7.90;99.90
5556;DHT22;2801;50.972;7.856;2023-05-06T04:38:46;7.90;99.90
5556;DHT22;2801;50.972;7.856;2023-05-06T04:41:13;7.90;99.90
5556;DHT22;2801;50.972;7.856;2023-05-06T04:43:41;8.00;99.90
5556;DHT22;2801;50.972;7.856;2023-05-06T04:46:08;8.00;99.90
5556;DHT22;2801;50.972;7.856;2023-05-06T04:48:37;8.00;99.90
5556;DHT22;2801;50.972;7.856;2023-05-06T04:51:04;8.00;99.90
5556;DHT22;2801;50.972;7.856;2023-05-06T04:53:31;8.10;99.90
5556;DHT22;2801;50.972;7.856;2023-05-06T04:55:58;8.10;99.90
5556;DHT22;2801;50.972;7.856;2023-05-06T04:58:25;8.10;99.90
5556;DHT22;2801;50.972;7.856;2023-05-06T05:00:52;8.10;99.90
5556;DHT22;2801;50.972;7.856;2023-05-06T05:03:19;8.30;99.90
5556;DHT22;2801;50.972;7.856;2023-05-06T05:05:46;8.50;99.90
5556;DHT22;2801;50.972;7.856;2023-05-06T05:08:13;8.40;99.90
5556;DHT22;2801;50.972;7.856;2023-05-06T05:10:40;8.40;99.90
5556;DHT22;2801;50.972;7.856;2023-05-06T05:13:08;8.50;99.90
5556;DHT22;2801;50.972;7.856;2023-05-06T05:15:36;8.60;99.90
5556;DHT22;2801;50.972;7.856;2023-05-06T05:18:04;8.70;99.90
5556;DHT22;2801;50.972;7.856;2023-05-06T05:20:31;8.70;99.90
5556;DHT22;2801;50.972;7.856;2023-05-06T05:22:58;8.80;99.90
5556;DHT22;2801;50.972;7.856;2023-05-06T05:25:25;8.80;99.90
5556;DHT22;2801;50.972;7.856;2023-05-06T05:27:52;8.80;99.90
5556;DHT22;2801;50.972;7.856;2023-05-06T05:30:19;8.90;99.90
5556;DHT22;2801;50.972;7.856;2023-05-06T05:32:46;9.10;99.90
5556;DHT22;2801;50.972;7.856;2023-05-06T05:35:13;9.30;99.90
5556;DHT22;2801;50.972;7.856;2023-05-06T05:37:40;9.50;99.90
5556;DHT22;2801;50.972;7.856;2023-05-06T05:40:07;9.60;99.90
5556;DHT22;2801;50.972;7.856;2023-05-06T05:42:35;9.60;99.90
5556;DHT22;2801;50.972;7.856;2023-05-06T05:45:01;9.40;99.90
5556;DHT22;2801;50.972;7.856;2023-05-06T05:47:29;9.40;99.90
5556;DHT22;2801;50.972;7.856;2023-05-06T05:49:56;9.40;99.90
5556;DHT22;2801;50.972;7.856;2023-05-06T05:52:23;9.60;99.90
5556;DHT22;2801;50.972;7.856;2023-05-06T05:54:50;9.70;99.90
5556;DHT22;2801;50.972;7.856;2023-05-06T05:57:17;9.70;99.90
5556;DHT22;2801;50.972;7.856;2023-05-06T05:59:44;9.80;99.90
5556;DHT22;2801;50.972;7.856;2023-05-06T06:02:10;10.00;99.90
5556;DHT22;2801;50.972;7.856;2023-05-06T06:04:37;10.20;99.90
5556;DHT22;2801;50.972;7.856;2023-05-06T06:07:04;10.40;99.90
5556;DHT22;2801;50.972;7.856;2023-05-06T06:09:31;10.60;99.90
5556;DHT22;2801;50.972;7.856;2023-05-06T06:11:59;10.70;99.90
5556;DHT22;2801;50.972;7.856;2023-05-06T06:14:27;10.80;99.90
5556;DHT22;2801;50.972;7.856;2023-05-06T06:16:54;10.80;99.90
5556;DHT22;2801;50.972;7.856;2023-05-06T06:19:21;11.00;99.90
5556;DHT22;2801;50.972;7.856;2023-05-06T06:21:48;11.30;99.90
5556;DHT22;2801;50.972;7.856;2023-05-06T06:24:15;11.10;99.90
5556;DHT22;2801;50.972;7.856;2023-05-06T06:26:42;11.20;99.90
5556;DHT22;2801;50.972;7.856;2023-05-06T06:29:09;11.30;99.90
5556;DHT22;2801;50.972;7.856;2023-05-06T06:31:36;11.40;99.90
5556;DHT22;2801;50.972;7.856;2023-05-06T06:34:06;11.50;99.90
5556;DHT22;2801;50.972;7.856;2023-05-06T06:36:34;11.90;99.90
5556;DHT22;2801;50.972;7.856;2023-05-06T06:39:01;12.00;99.90
5556;DHT22;2801;50.972;7.856;2023-05-06T06:41:28;12.20;99.90
5556;DHT22;2801;50.972;7.856;2023-05-06T06:43:55;12.40;99.90
5556;DHT22;2801;50.972;7.856;2023-05-06T06:46:22;12.60;99.90
5556;DHT22;2801;50.972;7.856;2023-05-06T06:48:49;12.90;99.90
5556;DHT22;2801;50.972;7.856;2023-05-06T06:51:16;13.10;99.90
5556;DHT22;2801;50.972;7.856;2023-05-06T06:53:43;13.20;99.90
5556;DHT22;2801;50.972;7.856;2023-05-06T06:56:10;13.40;99.90
5556;DHT22;2801;50.972;7.856;2023-05-06T06:58:38;13.20;99.90
5556;DHT22;2801;50.972;7.856;2023-05-06T07:01:05;13.20;99.90
5556;DHT22;2801;50.972;7.856;2023-05-06T07:03:32;13.50;99.90
5556;DHT22;2801;50.972;7.856;2023-05-06T07:05:59;13.60;99.90
5556;DHT22;2801;50.972;7.856;2023-05-06T07:08:26;13.80;99.90
5556;DHT22;2801;50.972;7.856;2023-05-06T07:10:53;13.90;99.90
5556;DHT22;2801;50.972;7.856;2023-05-06T07:13:21;14.10;99.90
5556;DHT22;2801;50.972;7.856;2023-05-06T07:15:49;14.60;99.90
5556;DHT22;2801;50.972;7.856;2023-05-06T07:18:16;14.80;99.90
5556;DHT22;2801;50.972;7.856;2023-05-06T07:20:43;15.20;99.90
5556;DHT22;2801;50.972;7.856;2023-05-06T07:23:09;15.30;99.90
5556;DHT22;2801;50.972;7.856;2023-05-06T07:25:36;15.50;99.90
5556;DHT22;2801;50.972;7.856;2023-05-06T07:28:03;15.90;99.90
5556;DHT22;2801;50.972;7.856;2023-05-06T07:30:31;16.50;99.90
5556;DHT22;2801;50.972;7.856;2023-05-06T07:32:58;17.30;99.90
5556;DHT22;2801;50.972;7.856;2023-05-06T07:35:25;18.10;99.90
5556;DHT22;2801;50.972;7.856;2023-05-06T07:37:51;19.40;99.90
5556;DHT22;2801;50.972;7.856;2023-05-06T07:40:18;21.00;99.90
5556;DHT22;2801;50.972;7.856;2023-05-06T07:42:45;22.40;99.90
5556;DHT22;2801;50.972;7.856;2023-05-06T07:45:12;23.60;99.90
5556;DHT22;2801;50.972;7.856;2023-05-06T07:47:40;24.70;99.90
5556;DHT22;2801;50.972;7.856;2023-05-06T07:50:07;25.30;99.90
5556;DHT22;2801;50.972;7.856;2023-05-06T07:52:36;25.70;99.20
5556;DHT22;2801;50.972;7.856;2023-05-06T07:55:03;26.30;98.70
5556;DHT22;2801;50.972;7.856;2023-05-06T07:57:30;26.10;96.40
5556;DHT22;2801;50.972;7.856;2023-05-06T07:59:57;25.60;96.90
5556;DHT22;2801;50.972;7.856;2023-05-06T08:02:25;25.10;98.10
5556;DHT22;2801;50.972;7.856;2023-05-06T08:04:52;24.40;98.80
5556;DHT22;2801;50.972;7.856;2023-05-06T08:07:19;23.50;99.70
5556;DHT22;2801;50.972;7.856;2023-05-06T08:09:46;22.80;99.90
5556;DHT22;2801;50.972;7.856;2023-05-06T08:12:13;22.00;99.90
5556;DHT22;2801;50.972;7.856;2023-05-06T08:14:41;21.50;99.90
5556;DHT22;2801;50.972;7.856;2023-05-06T08:17:08;21.80;99.90
5556;DHT22;2801;50.972;7.856;2023-05-06T08:19:35;22.00;99.90
5556;DHT22;2801;50.972;7.856;2023-05-06T08:22:02;22.20;99.90
5556;DHT22;2801;50.972;7.856;2023-05-06T08:24:29;22.00;99.90
5556;DHT22;2801;50.972;7.856;2023-05-06T08:26:56;21.80;99.90
5556;DHT22;2801;50.972;7.856;2023-05-06T08:29:22;21.40;99.90
5556;DHT22;2801;50.972;7.856;2023-05-06T08:31:49;20.90;99.90
5556;DHT22;2801;50.972;7.856;2023-05-06T08:34:16;20.50;99.90
5556;DHT22;2801;50.972;7.856;2023-05-06T08:36:47;20.20;99.90
5556;DHT22;2801;50.972;7.856;2023-05-06T08:39:14;20.00;99.90
5556;DHT22;2801;50.972;7.856;2023-05-06T08:41:46;19.80;99.90
5556;DHT22;2801;50.972;7.856;2023-05-06T08:44:18;19.60;99.90
5556;DHT22;2801;50.972;7.856;2023-05-06T08:46:47;19.60;99.90
5556;DHT22;2801;50.972;7.856;2023-05-06T08:49:14;19.80;99.90
5556;DHT22;2801;50.972;7.856;2023-05-06T08:51:43;19.90;99.90
5556;DHT22;2801;50.972;7.856;2023-05-06T08:54:11;20.50;99.90
5556;DHT22;2801;50.972;7.856;2023-05-06T08:56:42;20.90;99.90
5556;DHT22;2801;50.972;7.856;2023-05-06T08:59:23;21.00;99.90
5556;DHT22;2801;50.972;7.856;2023-05-06T09:01:51;21.30;99.90
5556;DHT22;2801;50.972;7.856;2023-05-06T09:04:19;21.90;99.90
5556;DHT22;2801;50.972;7.856;2023-05-06T09:06:46;21.90;99.90
5556;DHT22;2801;50.972;7.856;2023-05-06T09:09:13;21.80;99.90
5556;DHT22;2801;50.972;7.856;2023-05-06T09:11:40;22.20;98.50
5556;DHT22;2801;50.972;7.856;2023-05-06T09:14:14;23.20;97.70
5556;DHT22;2801;50.972;7.856;2023-05-06T09:16:45;24.20;95.20
5556;DHT22;2801;50.972;7.856;2023-05-06T09:19:16;25.20;94.20
5556;DHT22;2801;50.972;7.856;2023-05-06T09:21:47;26.30;92.60
5556;DHT22;2801;50.972;7.856;2023-05-06T09:24:15;27.00;90.20
5556;DHT22;2801;50.972;7.856;2023-05-06T09:26:44;27.20;81.80
5556;DHT22;2801;50.972;7.856;2023-05-06T09:29:12;27.40;82.60
5556;DHT22;2801;50.972;7.856;2023-05-06T09:31:41;27.60;75.50
5556;DHT22;2801;50.972;7.856;2023-05-06T09:34:10;27.80;79.30
5556;DHT22;2801;50.972;7.856;2023-05-06T09:36:38;28.20;77.20
5556;DHT22;2801;50.972;7.856;2023-05-06T09:39:05;28.60;72.80
5556;DHT22;2801;50.972;7.856;2023-05-06T09:41:32;28.10;70.90
5556;DHT22;2801;50.972;7.856;2023-05-06T09:44:00;27.20;73.00
5556;DHT22;2801;50.972;7.856;2023-05-06T09:46:27;26.10;71.00
5556;DHT22;2801;50.972;7.856;2023-05-06T09:48:55;25.40;75.40
5556;DHT22;2801;50.972;7.856;2023-05-06T09:51:25;24.90;74.00
5556;DHT22;2801;50.972;7.856;2023-05-06T09:53:55;24.60;75.90
5556;DHT22;2801;50.972;7.856;2023-05-06T09:56:24;24.60;76.90
5556;DHT22;2801;50.972;7.856;2023-05-06T09:58:53;24.60;78.10
5556;DHT22;2801;50.972;7.856;2023-05-06T10:01:22;25.00;77.30
5556;DHT22;2801;50.972;7.856;2023-05-06T10:04:04;26.10;73.30
5556;DHT22;2801;50.972;7.856;2023-05-06T10:06:35;27.30;70.30
5556;DHT22;2801;50.972;7.856;2023-05-06T10:09:08;27.80;68.10
5556;DHT22;2801;50.972;7.856;2023-05-06T10:11:36;27.50;68.20
5556;DHT22;2801;50.972;7.856;2023-05-06T10:14:04;27.30;66.70
5556;DHT22;2801;50.972;7.856;2023-05-06T10:16:33;27.70;66.60
5556;DHT22;2801;50.972;7.856;2023-05-06T10:19:03;28.30;66.00
5556;DHT22;2801;50.972;7.856;2023-05-06T10:21:35;28.30;66.10
5556;DHT22;2801;50.972;7.856;2023-05-06T10:24:09;27.90;68.20
5556;DHT22;2801;50.972;7.856;2023-05-06T10:26:38;27.60;68.60
5556;DHT22;2801;50.972;7.856;2023-05-06T10:29:09;27.60;66.60
5556;DHT22;2801;50.972;7.856;2023-05-06T10:31:45;28.00;67.00
5556;DHT22;2801;50.972;7.856;2023-05-06T10:34:19;28.20;65.00
5556;DHT22;2801;50.972;7.856;2023-05-06T10:36:51;28.10;65.20
5556;DHT22;2801;50.972;7.856;2023-05-06T10:39:23;28.00;63.90
5556;DHT22;2801;50.972;7.856;2023-05-06T10:41:52;27.10;63.30
5556;DHT22;2801;50.972;7.856;2023-05-06T10:44:54;26.40;64.90
5556;DHT22;2801;50.972;7.856;2023-05-06T10:47:22;26.10;66.50
5556;DHT22;2801;50.972;7.856;2023-05-06T10:52:46;25.40;66.60
5556;DHT22;2801;50.972;7.856;2023-05-06T10:55:33;24.60;68.40
5556;DHT22;2801;50.972;7.856;2023-05-06T10:58:14;24.00;67.20
5556;DHT22;2801;50.972;7.856;2023-05-06T11:00:52;24.10;69.90
5556;DHT22;2801;50.972;7.856;2023-05-06T11:03:23;24.10;69.40
5556;DHT22;2801;50.972;7.856;2023-05-06T11:05:51;24.00;71.30
5556;DHT22;2801;50.972;7.856;2023-05-06T11:08:23;24.00;71.30
5556;DHT22;2801;50.972;7.856;2023-05-06T11:10:52;24.10;72.10
5556;DHT22;2801;50.972;7.856;2023-05-06T11:13:26;24.00;72.40
5556;DHT22;2801;50.972;7.856;2023-05-06T11:15:56;23.80;72.10
5556;DHT22;2801;50.972;7.856;2023-05-06T11:26:13;22.50;74.50
5556;DHT22;2801;50.972;7.856;2023-05-06T11:28:45;22.60;75.40
5556;DHT22;2801;50.972;7.856;2023-05-06T11:31:15;22.70;74.90
5556;DHT22;2801;50.972;7.856;2023-05-06T11:33:47;22.60;74.40
5556;DHT22;2801;50.972;7.856;2023-05-06T11:36:18;22.50;74.90
5556;DHT22;2801;50.972;7.856;2023-05-06T11:38:50;22.40;76.00
5556;DHT22;2801;50.972;7.856;2023-05-06T11:41:19;22.40;76.10
5556;DHT22;2801;50.972;7.856;2023-05-06T11:43:49;22.50;76.80
5556;DHT22;2801;50.972;7.856;2023-05-06T11:46:18;22.40;74.60
5556;DHT22;2801;50.972;7.856;2023-05-06T11:48:46;22.20;75.70
5556;DHT22;2801;50.972;7.856;2023-05-06T11:51:13;22.30;77.40
5556;DHT22;2801;50.972;7.856;2023-05-06T11:53:40;22.50;77.20
5556;DHT22;2801;50.972;7.856;2023-05-06T11:56:07;22.60;77.30
5556;DHT22;2801;50.972;7.856;2023-05-06T11:58:34;22.60;75.60
5556;DHT22;2801;50.972;7.856;2023-05-06T12:01:02;22.70;75.80
5556;DHT22;2801;50.972;7.856;2023-05-06T12:03:31;22.80;76.70
5556;DHT22;2801;50.972;7.856;2023-05-06T12:05:59;22.70;76.30
5556;DHT22;2801;50.972;7.856;2023-05-06T12:08:29;22.50;76.20
5556;DHT22;2801;50.972;7.856;2023-05-06T12:11:01;22.20;75.80
5556;DHT22;2801;50.972;7.856;2023-05-06T12:13:30;21.90;74.60
5556;DHT22;2801;50.972;7.856;2023-05-06T12:15:58;21.70;75.10
5556;DHT22;2801;50.972;7.856;2023-05-06T12:18:26;21.70;75.80
5556;DHT22;2801;50.972;7.856;2023-05-06T12:20:54;21.50;75.10
5556;DHT22;2801;50.972;7.856;2023-05-06T12:23:22;21.50;76.60
5556;DHT22;2801;50.972;7.856;2023-05-06T12:26:09;21.80;77.60
5556;DHT22;2801;50.972;7.856;2023-05-06T12:28:38;22.10;76.50
5556;DHT22;2801;50.972;7.856;2023-05-06T12:31:37;22.40;78.10
5556;DHT22;2801;50.972;7.856;2023-05-06T12:34:04;22.70;77.00
5556;DHT22;2801;50.972;7.856;2023-05-06T12:36:31;22.90;76.60
5556;DHT22;2801;50.972;7.856;2023-05-06T12:39:05;23.10;77.00
5556;DHT22;2801;50.972;7.856;2023-05-06T12:41:43;23.40;76.30
5556;DHT22;2801;50.972;7.856;2023-05-06T12:47:08;23.70;76.10
5556;DHT22;2801;50.972;7.856;2023-05-06T12:49:52;23.80;75.90
5556;DHT22;2801;50.972;7.856;2023-05-06T12:52:21;23.70;72.50
5556;DHT22;2801;50.972;7.856;2023-05-06T12:54:49;23.70;69.60
5556;DHT22;2801;50.972;7.856;2023-05-06T12:57:20;23.60;70.20
5556;DHT22;2801;50.972;7.856;2023-05-06T12:59:47;23.50;69.90
5556;DHT22;2801;50.972;7.856;2023-05-06T13:02:15;23.40;69.80
5556;DHT22;2801;50.972;7.856;2023-05-06T13:04:42;23.40;72.20
5556;DHT22;2801;50.972;7.856;2023-05-06T13:07:11;23.60;72.00
5556;DHT22;2801;50.972;7.856;2023-05-06T13:09:38;23.70;71.00
5556;DHT22;2801;50.972;7.856;2023-05-06T13:12:05;23.80;68.80
5556;DHT22;2801;50.972;7.856;2023-05-06T13:14:32;23.80;69.80
5556;DHT22;2801;50.972;7.856;2023-05-06T13:16:59;23.70;69.20
5556;DHT22;2801;50.972;7.856;2023-05-06T13:19:30;23.70;70.30
5556;DHT22;2801;50.972;7.856;2023-05-06T13:21:59;23.70;70.20
5556;DHT22;2801;50.972;7.856;2023-05-06T13:24:27;23.60;69.70
5556;DHT22;2801;50.972;7.856;2023-05-06T13:26:54;23.50;69.60
5556;DHT22;2801;50.972;7.856;2023-05-06T13:29:23;23.30;70.40
5556;DHT22;2801;50.972;7.856;2023-05-06T13:31:50;23.20;71.30
5556;DHT22;2801;50.972;7.856;2023-05-06T13:34:17;23.10;70.10
5556;DHT22;2801;50.972;7.856;2023-05-06T13:36:44;23.00;70.30
5556;DHT22;2801;50.972;7.856;2023-05-06T13:39:12;22.90;70.00
5556;DHT22;2801;50.972;7.856;2023-05-06T13:41:39;22.90;70.80
5556;DHT22;2801;50.972;7.856;2023-05-06T13:44:06;23.10;71.50
5556;DHT22;2801;50.972;7.856;2023-05-06T13:46:33;23.20;71.50
5556;DHT22;2801;50.972;7.856;2023-05-06T13:49:00;23.40;70.70
5556;DHT22;2801;50.972;7.856;2023-05-06T13:51:27;23.60;70.50
5556;DHT22;2801;50.972;7.856;2023-05-06T13:53:56;23.70;69.60
5556;DHT22;2801;50.972;7.856;2023-05-06T13:56:23;23.70;68.40
5556;DHT22;2801;50.972;7.856;2023-05-06T13:58:50;23.70;67.70
5556;DHT22;2801;50.972;7.856;2023-05-06T14:01:22;23.70;68.40
5556;DHT22;2801;50.972;7.856;2023-05-06T14:03:50;23.80;68.70
5556;DHT22;2801;50.972;7.856;2023-05-06T14:06:17;23.70;69.60
5556;DHT22;2801;50.972;7.856;2023-05-06T14:08:44;23.90;67.70
5556;DHT22;2801;50.972;7.856;2023-05-06T14:11:11;23.70;68.00
5556;DHT22;2801;50.972;7.856;2023-05-06T14:13:39;23.60;67.80
5556;DHT22;2801;50.972;7.856;2023-05-06T14:16:06;23.30;65.20
5556;DHT22;2801;50.972;7.856;2023-05-06T14:18:33;23.00;67.10
5556;DHT22;2801;50.972;7.856;2023-05-06T14:21:00;22.90;67.00
5556;DHT22;2801;50.972;7.856;2023-05-06T14:23:27;22.80;67.00
5556;DHT22;2801;50.972;7.856;2023-05-06T14:25:54;22.60;66.90
5556;DHT22;2801;50.972;7.856;2023-05-06T14:28:21;22.40;67.60
5556;DHT22;2801;50.972;7.856;2023-05-06T14:30:49;22.20;67.80
5556;DHT22;2801;50.972;7.856;2023-05-06T14:33:16;22.20;68.70
5556;DHT22;2801;50.972;7.856;2023-05-06T14:35:44;22.20;68.40
5556;DHT22;2801;50.972;7.856;2023-05-06T14:38:11;22.10;69.50
5556;DHT22;2801;50.972;7.856;2023-05-06T14:40:38;22.10;69.80
5556;DHT22;2801;50.972;7.856;2023-05-06T14:43:06;22.00;69.70
5556;DHT22;2801;50.972;7.856;2023-05-06T14:45:33;22.10;70.00
5556;DHT22;2801;50.972;7.856;2023-05-06T14:48:00;22.10;69.40
5556;DHT22;2801;50.972;7.856;2023-05-06T14:50:29;22.10;69.10
5556;DHT22;2801;50.972;7.856;2023-05-06T14:52:56;22.10;69.40
5556;DHT22;2801;50.972;7.856;2023-05-06T14:55:23;22.10;68.70
5556;DHT22;2801;50.972;7.856;2023-05-06T14:57:51;22.10;69.80
5556;DHT22;2801;50.972;7.856;2023-05-06T15:00:18;22.10;70.50
5556;DHT22;2801;50.972;7.856;2023-05-06T15:02:46;22.10;70.20
5556;DHT22;2801;50.972;7.856;2023-05-06T15:05:13;22.10;70.10
5556;DHT22;2801;50.972;7.856;2023-05-06T15:07:40;22.00;70.70
5556;DHT22;2801;50.972;7.856;2023-05-06T15:10:07;22.00;70.40
5556;DHT22;2801;50.972;7.856;2023-05-06T15:12:35;21.90;70.70
5556;DHT22;2801;50.972;7.856;2023-05-06T15:15:05;21.90;71.30
5556;DHT22;2801;50.972;7.856;2023-05-06T15:17:33;21.70;71.00
5556;DHT22;2801;50.972;7.856;2023-05-06T15:20:00;21.80;71.40
5556;DHT22;2801;50.972;7.856;2023-05-06T15:22:27;21.80;71.50
5556;DHT22;2801;50.972;7.856;2023-05-06T15:24:54;21.80;72.10
5556;DHT22;2801;50.972;7.856;2023-05-06T15:27:21;21.90;72.80
5556;DHT22;2801;50.972;7.856;2023-05-06T15:29:48;21.90;73.00
5556;DHT22;2801;50.972;7.856;2023-05-06T15:32:15;21.90;72.80
5556;DHT22;2801;50.972;7.856;2023-05-06T15:34:42;21.80;73.10
5556;DHT22;2801;50.972;7.856;2023-05-06T15:37:09;21.70;73.70
5556;DHT22;2801;50.972;7.856;2023-05-06T15:39:36;21.70;74.40
5556;DHT22;2801;50.972;7.856;2023-05-06T15:42:03;21.60;74.80
5556;DHT22;2801;50.972;7.856;2023-05-06T15:44:31;21.50;74.90
5556;DHT22;2801;50.972;7.856;2023-05-06T15:46:59;21.40;74.70
5556;DHT22;2801;50.972;7.856;2023-05-06T15:49:26;21.30;74.70
5556;DHT22;2801;50.972;7.856;2023-05-06T15:51:56;21.20;75.10
5556;DHT22;2801;50.972;7.856;2023-05-06T15:54:27;20.90;75.60
5556;DHT22;2801;50.972;7.856;2023-05-06T15:56:54;20.80;75.90
5556;DHT22;2801;50.972;7.856;2023-05-06T15:59:22;20.70;76.30
5556;DHT22;2801;50.972;7.856;2023-05-06T16:01:49;20.50;76.80
5556;DHT22;2801;50.972;7.856;2023-05-06T16:04:36;20.50;77.80
5556;DHT22;2801;50.972;7.856;2023-05-06T16:07:03;20.20;78.40
5556;DHT22;2801;50.972;7.856;2023-05-06T16:09:30;20.00;79.50
5556;DHT22;2801;50.972;7.856;2023-05-06T16:11:57;19.80;80.20
5556;DHT22;2801;50.972;7.856;2023-05-06T16:14:24;19.70;81.40
5556;DHT22;2801;50.972;7.856;2023-05-06T16:16:51;19.50;82.90
5556;DHT22;2801;50.972;7.856;2023-05-06T16:19:18;19.30;82.70
5556;DHT22;2801;50.972;7.856;2023-05-06T16:21:45;19.20;83.30
5556;DHT22;2801;50.972;7.856;2023-05-06T16:24:12;19.10;83.60
5556;DHT22;2801;50.972;7.856;2023-05-06T16:26:39;19.00;83.50
5556;DHT22;2801;50.972;7.856;2023-05-06T16:29:06;18.80;84.30
5556;DHT22;2801;50.972;7.856;2023-05-06T16:31:33;18.80;84.00